Time;durP1;ratioP1;P1;durP2;ratioP2;P2;SDS_P1;SDS_P2;PMS_P1;PMS_P2;Temp;Humidity;BMP_temperature;BMP_pressure;BME280_temperature;BME280_humidity;BME280_pressure;Samples;Min_cycle;Max_cycle;Signal;HPM_P1;HPM_P2
2022/10/06 00:01:17;;;;;;;4.72;2.28;;;12.60;99.90;;;12.20;100.00;98031.25;4963148;28;20053;-43
2022/10/06 00:03:44;;;;;;;2.90;1.90;;;12.60;99.90;;;12.24;100.00;98042.59;4966045;28;20034;-42
2022/10/06 00:06:14;;;;;;;3.25;2.33;;;12.60;99.90;;;12.25;100.00;98041.66;4965812;28;20096;-43
2022/10/06 00:08:42;;;;;;;5.13;1.75;;;12.60;99.90;;;12.26;100.00;98043.41;4937411;28;20034;-43
2022/10/06 00:11:11;;;;;;;3.22;1.88;;;12.60;99.90;;;12.27;100.00;98039.84;4952830;28;20062;-43
2022/10/06 00:13:36;;;;;;;2.45;1.67;;;12.60;99.90;;;12.27;100.00;98046.91;4963268;28;20093;-44
2022/10/06 00:16:15;;;;;;;4.50;1.80;;;12.60;99.90;;;12.26;100.00;98043.41;4960871;28;20549;-43
2022/10/06 00:18:42;;;;;;;2.65;2.08;;;12.60;99.90;;;12.27;100.00;98049.56;4950642;28;20045;-42
2022/10/06 00:21:08;;;;;;;7.13;2.08;;;12.60;99.90;;;12.25;100.00;98043.47;4950744;28;20169;-43
2022/10/06 00:23:33;;;;;;;4.95;2.08;;;12.60;99.90;;;12.22;100.00;98054.97;4966828;28;20038;-43
2022/10/06 00:25:59;;;;;;;2.25;1.88;;;12.60;99.90;;;12.21;100.00;98056.78;4961362;28;20069;-43
2022/10/06 00:28:25;;;;;;;2.95;2.10;;;12.60;99.90;;;12.27;100.00;98068.06;4967705;28;20542;-46
2022/10/06 00:30:52;;;;;;;3.72;1.77;;;12.60;99.90;;;12.32;100.00;98060.84;4961735;28;21309;-44
2022/10/06 00:33:18;;;;;;;4.50;1.80;;;12.60;99.90;;;12.26;100.00;98061.94;4958037;28;20113;-43
2022/10/06 00:35:44;;;;;;;3.65;1.80;;;12.60;99.90;;;12.26;100.00;98066.31;4962895;28;21526;-42
2022/10/06 00:38:12;;;;;;;2.47;1.63;;;12.60;99.90;;;12.22;100.00;98060.28;4946252;28;20034;-43
2022/10/06 00:40:44;;;;;;;2.90;1.75;;;12.70;99.90;;;12.31;100.00;98074.97;4944496;28;20049;-44
2022/10/06 00:43:51;;;;;;;5.75;1.95;;;12.60;99.90;;;12.35;100.00;98076.63;4929500;28;20039;-45
2022/10/06 00:46:46;;;;;;;4.22;1.98;;;12.70;99.90;;;12.35;100.00;98076.63;4964574;28;20050;-43
2022/10/06 00:49:40;;;;;;;2.15;1.77;;;12.70;99.90;;;12.34;100.00;98081.03;4924459;28;20849;-44
2022/10/06 00:52:11;;;;;;;3.47;1.80;;;12.70;99.90;;;12.32;100.00;98088.16;4926850;28;20156;-44
2022/10/06 00:54:38;;;;;;;2.97;1.98;;;12.70;99.90;;;12.30;100.00;98087.34;4930480;28;20104;-44
2022/10/06 00:57:04;;;;;;;4.00;2.08;;;12.70;99.90;;;12.30;100.00;98095.28;4943873;28;20035;-43
2022/10/06 00:59:31;;;;;;;3.38;1.92;;;12.70;99.90;;;12.24;100.00;98084.91;4955207;28;20030;-43
2022/10/06 01:05:46;;;;;;;4.45;2.05;;;12.60;99.90;;;12.19;100.00;98089.50;4939976;28;20109;-44
2022/10/06 01:08:12;;;;;;;3.90;2.30;;;12.60;99.90;;;12.18;100.00;98093.03;4941611;28;20620;-44
2022/10/06 01:10:38;;;;;;;3.75;1.77;;;12.60;99.90;;;12.17;100.00;98096.63;4957288;28;20113;-43
2022/10/06 01:13:05;;;;;;;7.65;1.98;;;12.60;99.90;;;12.13;100.00;98095.84;4965098;28;21103;-43
2022/10/06 01:15:32;;;;;;;4.63;2.05;;;12.50;99.90;;;12.13;100.00;98100.25;4958218;28;20038;-43
2022/10/06 01:18:08;;;;;;;6.22;2.15;;;12.50;99.90;;;12.14;100.00;98108.13;4956989;28;20061;-43
2022/10/06 01:20:37;;;;;;;3.35;2.15;;;12.50;99.90;;;12.11;100.00;98105.56;4945553;28;20694;-42
2022/10/06 01:23:05;;;;;;;10.15;2.20;;;12.50;99.90;;;12.14;100.00;98102.00;4940610;28;20082;-43
2022/10/06 01:25:33;;;;;;;3.88;2.22;;;12.50;99.90;;;12.13;100.00;98103.78;4923117;28;20567;-44
2022/10/06 01:28:00;;;;;;;4.07;1.92;;;12.50;99.90;;;12.14;100.00;98104.63;4935818;28;21492;-43
2022/10/06 01:30:35;;;;;;;3.70;1.77;;;12.50;99.90;;;12.16;100.00;98105.44;4932081;28;20061;-43
2022/10/06 01:33:01;;;;;;;4.40;2.47;;;12.50;99.90;;;12.16;100.00;98108.09;4927202;28;20034;-42
2022/10/06 01:35:27;;;;;;;3.75;2.30;;;12.50;99.90;;;12.14;100.00;98102.00;4940239;28;20555;-42
2022/10/06 01:37:53;;;;;;;5.00;2.10;;;12.60;99.90;;;12.15;100.00;98112.53;4942819;28;20555;-43
2022/10/06 01:40:19;;;;;;;5.40;2.28;;;12.50;99.90;;;12.11;100.00;98110.00;4949601;28;20069;-45
2022/10/06 01:42:45;;;;;;;3.60;2.13;;;12.50;99.90;;;12.17;100.00;98107.19;4939301;28;20164;-43
2022/10/06 01:45:11;;;;;;;4.78;2.15;;;12.50;99.90;;;12.19;100.00;98115.94;4950240;28;20031;-42
2022/10/06 01:47:37;;;;;;;3.67;2.30;;;12.50;99.90;;;12.23;100.00;98123.69;4965245;28;20060;-43
2022/10/06 01:50:05;;;;;;;5.35;2.20;;;12.60;99.90;;;12.21;100.00;98127.31;4949621;28;23774;-43
2022/10/06 01:52:31;;;;;;;2.88;2.10;;;12.60;99.90;;;12.23;100.00;98129.00;4945394;28;20507;-46
2022/10/06 01:54:57;;;;;;;3.17;2.13;;;12.60;99.90;;;12.22;100.00;98135.22;4937892;28;20041;-42
2022/10/06 01:57:22;;;;;;;5.82;2.30;;;12.60;99.90;;;12.20;100.00;98133.50;4942465;28;20036;-44
2022/10/06 01:59:48;;;;;;;4.22;2.13;;;12.60;99.90;;;12.17;100.00;98125.69;4947984;28;21515;-42
2022/10/06 02:02:14;;;;;;;4.72;2.40;;;12.60;99.90;;;12.22;100.00;98135.22;4954605;28;20674;-42
2022/10/06 02:04:39;;;;;;;3.45;2.00;;;12.50;99.90;;;12.17;100.00;98142.41;4946446;28;24039;-43
2022/10/06 02:07:05;;;;;;;7.18;2.80;;;12.60;99.90;;;12.19;100.00;98135.28;4945715;28;20042;-42
2022/10/06 02:09:31;;;;;;;3.53;2.35;;;12.50;99.90;;;12.15;100.00;98130.13;4941001;28;20045;-43
2022/10/06 02:11:57;;;;;;;7.00;2.40;;;12.50;99.90;;;12.11;100.00;98134.66;4955642;28;21644;-42
2022/10/06 02:14:23;;;;;;;2.38;2.15;;;12.50;99.90;;;12.10;100.00;98134.75;4944981;28;20366;-43
2022/10/06 02:16:49;;;;;;;3.60;2.22;;;12.50;99.90;;;12.06;100.00;98139.25;4958931;28;20072;-43
2022/10/06 02:19:15;;;;;;;5.03;2.20;;;12.40;99.90;;;12.01;100.00;98135.88;4953487;28;20096;-42
2022/10/06 02:21:41;;;;;;;2.95;2.20;;;12.40;99.90;;;12.02;100.00;98140.25;4938713;28;20101;-43
2022/10/06 02:24:07;;;;;;;4.50;2.22;;;12.40;99.90;;;12.05;100.00;98145.44;4954629;28;20065;-42
2022/10/06 02:26:32;;;;;;;4.35;2.30;;;12.40;99.90;;;12.03;100.00;98149.91;4958059;28;20113;-45
2022/10/06 02:28:58;;;;;;;3.95;2.10;;;12.40;99.90;;;12.02;100.00;98151.72;4935802;28;20065;-43
2022/10/06 02:31:24;;;;;;;5.40;2.80;;;12.40;99.90;;;12.03;100.00;98165.78;4938833;28;20034;-43
2022/10/06 02:33:50;;;;;;;3.25;2.13;;;12.40;99.90;;;12.03;100.00;98161.34;4940435;28;20041;-43
2022/10/06 02:36:16;;;;;;;4.95;2.50;;;12.40;99.90;;;11.97;100.00;98164.19;4945219;28;20093;-42
2022/10/06 02:38:42;;;;;;;3.13;2.10;;;12.40;99.90;;;12.02;100.00;98175.50;4956628;28;20073;-43
2022/10/06 02:41:09;;;;;;;3.60;2.38;;;12.40;99.90;;;12.06;100.00;98178.03;4963823;28;20038;-46
2022/10/06 02:43:36;;;;;;;4.07;2.25;;;12.40;99.90;;;12.00;100.00;98177.28;4966073;28;20026;-42
2022/10/06 02:46:07;;;;;;;3.20;2.40;;;12.40;99.90;;;11.97;100.00;98185.34;4964175;28;20042;-44
2022/10/06 02:48:33;;;;;;;4.13;2.53;;;12.40;99.90;;;11.93;100.00;98182.81;4964640;28;20058;-45
2022/10/06 02:51:14;;;;;;;2.92;2.00;;;12.30;99.90;;;11.86;100.00;98190.03;4956678;28;20606;-43
2022/10/06 02:53:43;;;;;;;3.67;2.20;;;12.30;99.90;;;11.82;100.00;98188.41;4965795;28;20042;-45
2022/10/06 02:56:15;;;;;;;7.53;2.45;;;12.20;99.90;;;11.77;100.00;98196.47;4964605;28;20030;-43
2022/10/06 02:58:41;;;;;;;3.55;2.10;;;12.20;99.90;;;11.71;100.00;98195.78;4959740;28;20041;-45
2022/10/06 03:01:27;;;;;;;3.97;2.28;;;12.10;99.90;;;11.64;100.00;98188.00;4960515;28;20045;-44
2022/10/06 03:03:53;;;;;;;3.63;1.90;;;12.10;99.90;;;11.58;100.00;98193.47;4958325;28;20050;-45
2022/10/06 03:06:25;;;;;;;2.78;2.00;;;12.00;99.90;;;11.54;100.00;98191.84;4961966;28;20042;-45
2022/10/06 03:08:59;;;;;;;3.42;2.15;;;12.00;99.90;;;11.56;100.00;98213.78;4967848;28;20035;-44
2022/10/06 03:11:38;;;;;;;7.07;2.45;;;12.00;99.90;;;11.58;100.00;98214.63;4980093;23;20038;-47
2022/10/06 03:14:05;;;;;;;4.88;2.30;;;12.00;99.90;;;11.66;100.00;98211.75;4932022;28;20035;-47
2022/10/06 03:16:38;;;;;;;4.35;2.35;;;12.00;99.90;;;11.68;100.00;98220.50;4947007;28;20043;-46
2022/10/06 03:19:06;;;;;;;4.32;2.65;;;12.00;99.90;;;11.69;100.00;98224.88;4948951;28;20488;-48
2022/10/06 03:21:36;;;;;;;2.85;2.10;;;12.00;99.90;;;11.69;100.00;98234.59;4941856;28;20023;-49
2022/10/06 03:24:03;;;;;;;4.75;2.05;;;12.10;99.90;;;11.69;100.00;98234.59;4944317;28;20104;-47
2022/10/06 03:26:35;;;;;;;4.70;2.58;;;12.00;99.90;;;11.71;100.00;98243.34;4948348;28;20031;-50
2022/10/06 03:29:01;;;;;;;2.80;2.10;;;12.10;99.90;;;11.64;100.00;98242.63;4945987;28;20030;-47
2022/10/06 03:31:28;;;;;;;2.97;2.10;;;12.10;99.90;;;11.68;100.00;98248.69;4946776;28;20050;-48
2022/10/06 03:33:55;;;;;;;3.30;2.25;;;12.10;99.90;;;11.68;100.00;98254.84;4946030;28;20086;-49
2022/10/06 03:36:22;;;;;;;5.35;2.05;;;12.10;99.90;;;11.69;100.00;98245.16;4949815;28;20145;-48
2022/10/06 03:38:48;;;;;;;5.38;2.53;;;12.10;99.90;;;11.68;100.00;98253.97;4949902;28;20037;-49
2022/10/06 03:41:24;;;;;;;5.35;2.35;;;12.10;99.90;;;11.69;100.00;98266.31;4949362;28;20035;-47
2022/10/06 03:43:52;;;;;;;5.30;2.60;;;12.00;99.90;;;11.68;100.00;98262.78;4953792;28;20062;-48
2022/10/06 03:46:22;;;;;;;9.45;2.78;;;12.10;99.90;;;11.66;100.00;98267.25;4945895;28;20179;-49
2022/10/06 03:48:50;;;;;;;3.15;2.35;;;12.10;99.90;;;11.63;100.00;98272.63;4950250;28;20411;-47
2022/10/06 03:51:21;;;;;;;3.90;1.98;;;12.00;99.90;;;11.63;100.00;98284.06;4943107;28;20037;-48
2022/10/06 03:53:49;;;;;;;4.25;2.47;;;12.00;99.90;;;11.63;100.00;98288.47;4932208;28;20030;-49
2022/10/06 03:56:19;;;;;;;4.43;2.70;;;12.00;99.90;;;11.64;100.00;98293.69;4931464;28;20058;-46
2022/10/06 03:58:51;;;;;;;2.72;2.20;;;12.00;99.90;;;11.67;100.00;98302.47;4930332;28;20117;-49
2022/10/06 04:01:24;;;;;;;6.57;2.40;;;12.00;99.90;;;11.73;100.00;98304.94;4936519;28;20054;-47
2022/10/06 04:03:52;;;;;;;3.42;2.15;;;12.10;99.90;;;11.80;100.00;98307.38;4926756;28;20222;-49
2022/10/06 04:06:19;;;;;;;4.75;2.63;;;12.20;99.90;;;12.05;100.00;98308.50;4938629;28;20039;-47
2022/10/06 04:08:47;;;;;;;8.25;3.00;;;12.30;99.90;;;12.32;100.00;98309.47;4933079;28;20027;-46
2022/10/06 04:11:25;;;;;;;4.13;2.50;;;12.60;99.90;;;12.41;100.00;98294.19;4931280;28;20084;-48
2022/10/06 04:13:55;;;;;;;6.65;3.00;;;12.80;99.90;;;12.59;100.00;98299.84;4928114;28;20034;-46
2022/10/06 04:16:24;;;;;;;3.17;2.47;;;12.90;99.90;;;12.68;100.00;98306.63;4931689;28;20130;-49
2022/10/06 04:18:53;;;;;;;4.10;2.38;;;13.00;99.90;;;12.72;100.00;98319.75;4929764;28;20117;-47
2022/10/06 04:21:19;;;;;;;3.10;2.47;;;13.10;99.90;;;12.74;100.00;98312.63;4936627;28;20042;-48
2022/10/06 04:23:45;;;;;;;5.65;2.70;;;13.10;99.90;;;12.79;100.00;98323.94;4943658;28;20604;-47
2022/10/06 04:26:15;;;;;;;4.50;2.10;;;13.20;99.90;;;12.89;100.00;98321.00;4953693;28;20030;-46
2022/10/06 04:28:42;;;;;;;5.75;2.88;;;13.20;99.90;;;12.90;100.00;98323.59;4951347;28;20039;-47
2022/10/06 04:31:16;;;;;;;5.32;2.70;;;13.30;99.90;;;12.92;100.00;98331.47;4944806;28;20031;-48
2022/10/06 04:33:44;;;;;;;3.92;2.38;;;13.30;99.90;;;12.92;100.00;98326.16;4943360;28;20050;-49
2022/10/06 04:36:21;;;;;;;3.63;2.65;;;13.30;99.90;;;12.95;100.00;98329.59;4945927;28;20467;-47
2022/10/06 04:38:48;;;;;;;3.97;2.63;;;13.30;99.90;;;13.01;100.00;98328.56;4963196;28;20676;-49
2022/10/06 04:41:17;;;;;;;3.85;2.42;;;13.30;99.90;;;13.00;100.00;98334.75;4945817;28;20122;-47
2022/10/06 04:43:47;;;;;;;4.72;2.45;;;13.30;99.90;;;12.96;100.00;98335.78;4948845;28;20038;-47
2022/10/06 04:46:15;;;;;;;3.88;2.30;;;13.30;99.90;;;12.93;100.00;98333.22;4945026;28;20089;-46
2022/10/06 04:48:41;;;;;;;5.55;2.78;;;13.30;99.90;;;12.94;100.00;98327.88;4933724;28;20114;-52
2022/10/06 04:51:11;;;;;;;5.47;2.28;;;13.40;99.90;;;13.02;100.00;98332.91;4943881;28;20043;-47
2022/10/06 04:53:37;;;;;;;4.70;2.33;;;13.40;99.90;;;13.07;100.00;98328.34;4945926;28;20034;-50
2022/10/06 04:56:11;;;;;;;3.55;2.40;;;13.40;99.90;;;13.15;100.00;98350.16;4945804;28;20033;-48
2022/10/06 04:58:40;;;;;;;4.88;2.75;;;13.50;99.90;;;13.24;100.00;98343.66;4951067;28;20252;-47
2022/10/06 05:01:20;;;;;;;5.18;2.40;;;13.60;99.90;;;13.29;100.00;98344.38;4934074;28;20309;-50
2022/10/06 05:03:49;;;;;;;6.38;2.80;;;13.70;99.90;;;13.39;100.00;98345.00;4943537;28;20035;-48
2022/10/06 05:06:37;;;;;;;3.38;2.63;;;13.70;99.90;;;13.48;100.00;98354.44;4935079;28;20030;-47
2022/10/06 05:09:11;;;;;;;5.90;2.58;;;13.90;99.90;;;13.52;100.00;98364.88;4945834;28;20512;-51
2022/10/06 05:11:37;;;;;;;5.25;2.80;;;13.90;99.90;;;13.56;100.00;98361.19;4942244;28;20046;-49
2022/10/06 05:14:03;;;;;;;7.30;2.75;;;14.00;99.90;;;13.67;100.00;98370.56;4939028;28;20294;-49
2022/10/06 05:16:29;;;;;;;6.75;2.83;;;14.00;99.90;;;13.70;100.00;98366.03;4924166;28;20034;-50
2022/10/06 05:18:56;;;;;;;8.30;3.15;;;14.10;99.90;;;13.81;100.00;98370.97;4942309;28;20753;-50
2022/10/06 05:21:28;;;;;;;6.63;2.92;;;14.10;99.90;;;13.87;100.00;98378.72;4941277;28;20050;-51
2022/10/06 05:23:54;;;;;;;4.70;2.67;;;14.20;99.90;;;13.92;100.00;98375.88;4932291;28;20115;-47
2022/10/06 05:26:23;;;;;;;5.35;3.30;;;14.30;99.90;;;13.97;100.00;98381.03;4935293;28;20043;-50
2022/10/06 05:28:49;;;;;;;5.60;2.83;;;14.30;99.90;;;14.00;100.00;98380.91;4936524;28;20030;-51
2022/10/06 05:31:19;;;;;;;7.78;2.95;;;14.40;99.90;;;14.01;100.00;98383.53;4920382;28;20464;-50
2022/10/06 05:33:44;;;;;;;7.55;2.65;;;14.40;99.90;;;13.97;100.00;98381.91;4947883;28;20034;-50
2022/10/06 05:36:22;;;;;;;4.25;2.30;;;14.40;99.90;;;14.01;100.00;98393.28;4932721;28;20535;-48
2022/10/06 05:38:48;;;;;;;5.75;2.35;;;14.40;99.90;;;13.98;100.00;98396.91;4942023;28;20046;-51
2022/10/06 05:41:17;;;;;;;7.38;2.80;;;14.40;99.90;;;13.97;100.00;98404.91;4945961;28;20042;-51
2022/10/06 05:43:44;;;;;;;4.05;2.45;;;14.30;99.90;;;13.93;100.00;98401.50;4951660;28;20038;-49
2022/10/06 05:46:22;;;;;;;5.90;2.53;;;14.30;99.90;;;13.89;100.00;98408.69;4944907;28;20074;-50
2022/10/06 05:48:50;;;;;;;5.70;3.03;;;14.30;99.90;;;13.86;100.00;98406.16;4942740;28;20037;-51
2022/10/06 05:51:18;;;;;;;5.22;2.70;;;14.20;99.90;;;13.89;100.00;98415.75;4945189;28;20122;-52
2022/10/06 05:53:44;;;;;;;5.70;3.08;;;14.20;99.90;;;13.89;100.00;98408.69;4943797;28;20039;-51
2022/10/06 05:56:16;;;;;;;3.50;2.30;;;14.30;99.90;;;13.87;100.00;98413.19;4961603;28;20050;-49
2022/10/06 05:58:49;;;;;;;8.85;3.00;;;14.30;99.90;;;13.93;100.00;98417.41;4950745;28;20038;-51
2022/10/06 06:01:24;;;;;;;3.35;2.53;;;14.30;99.90;;;14.00;100.00;98423.34;4937326;28;20048;-49
2022/10/06 06:04:01;;;;;;;5.13;2.40;;;14.30;99.90;;;14.07;100.00;98424.91;4938761;28;20058;-51
2022/10/06 06:06:40;;;;;;;6.03;2.58;;;14.40;99.90;;;14.17;100.00;98431.59;4938985;28;20201;-51
2022/10/06 06:09:10;;;;;;;5.53;2.65;;;14.50;99.90;;;14.19;100.00;98434.19;4939695;28;20071;-49
2022/10/06 06:11:43;;;;;;;5.45;2.58;;;14.60;99.90;;;14.10;100.00;98422.13;4933026;28;22097;-47
2022/10/06 06:14:11;;;;;;;;;;;14.60;99.90;;;14.29;100.00;98438.28;4942727;28;20065;-50
2022/10/06 06:16:38;;;;;;;4.60;2.15;;;14.60;99.90;;;14.34;100.00;98446.94;4933824;28;19944;-48
2022/10/06 06:19:06;;;;;;;7.95;2.55;;;14.70;99.90;;;14.24;100.00;98421.66;4934793;28;20401;-51
2022/10/06 06:21:32;;;;;;;10.52;2.88;;;14.70;99.90;;;14.44;100.00;98453.63;4934644;28;20042;-49
2022/10/06 06:23:58;;;;;;;3.90;2.50;;;14.80;99.90;;;14.50;100.00;98450.78;4947673;28;20484;-49
2022/10/06 06:26:29;;;;;;;4.47;2.63;;;14.90;99.90;;;14.56;100.00;98452.34;4946832;28;20031;-50
2022/10/06 06:29:05;;;;;;;6.85;2.70;;;14.90;99.90;;;14.63;100.00;98461.00;4948750;28;20030;-48
2022/10/06 06:31:37;;;;;;;3.13;2.22;;;15.00;99.90;;;14.73;100.00;98472.13;4943251;28;20051;-49
2022/10/06 06:34:05;;;;;;;4.72;2.22;;;15.10;99.90;;;14.79;100.00;98466.59;4942131;28;20026;-50
2022/10/06 06:36:36;;;;;;;5.30;2.30;;;15.10;99.90;;;14.84;100.00;98481.44;4949093;28;20114;-48
2022/10/06 06:39:11;;;;;;;4.38;2.28;;;15.20;99.90;;;14.92;100.00;98475.84;4951222;28;20039;-52
2022/10/06 06:41:40;;;;;;;3.35;2.25;;;15.20;99.90;;;14.95;100.00;98486.34;4946467;28;20301;-48
2022/10/06 06:44:10;;;;;;;5.22;2.30;;;15.30;99.90;;;14.98;100.00;98486.22;4949281;28;20121;-49
2022/10/06 06:46:36;;;;;;;5.50;2.80;;;15.30;99.90;;;14.97;100.00;98491.63;4940927;28;20118;-48
2022/10/06 06:49:03;;;;;;;4.90;2.63;;;15.30;99.90;;;14.98;100.00;98486.22;4939809;28;20046;-51
2022/10/06 06:51:32;;;;;;;8.13;2.78;;;15.30;99.90;;;14.97;100.00;98496.94;4954023;28;20027;-48
2022/10/06 06:53:59;;;;;;;6.80;2.50;;;15.30;99.90;;;14.94;100.00;98503.19;4939784;28;20039;-49
2022/10/06 06:56:25;;;;;;;8.00;2.50;;;15.30;99.90;;;14.87;100.00;98501.69;4942452;28;20775;-48
2022/10/06 06:58:51;;;;;;;4.10;2.40;;;15.20;99.90;;;14.84;100.00;98508.00;4935489;28;20042;-49
2022/10/06 07:01:19;;;;;;;4.10;2.33;;;15.20;99.90;;;14.80;100.00;98509.00;4941900;28;20114;-50
2022/10/06 07:03:54;;;;;;;4.05;1.90;;;15.20;99.90;;;14.90;100.00;98520.19;4945928;28;20045;-50
2022/10/06 07:06:21;;;;;;;4.30;1.98;;;15.20;99.90;;;14.93;100.00;98530.69;4943237;28;20036;-48
2022/10/06 07:08:48;;;;;;;7.30;2.25;;;15.30;99.90;;;14.95;100.00;98527.97;4943042;28;20034;-48
2022/10/06 07:11:28;;;;;;;5.40;2.20;;;15.30;99.90;;;14.96;100.00;98527.91;4948411;28;20027;-51
2022/10/06 07:14:03;;;;;;;3.10;2.10;;;15.30;99.90;;;15.05;100.00;98532.03;4946841;28;20045;-52
2022/10/06 07:25:11;;;;;;;3.40;1.90;;;15.50;99.90;;;15.25;100.00;98545.44;4953653;28;20050;-49
2022/10/06 07:27:43;;;;;;;9.45;2.15;;;15.60;99.90;;;15.27;100.00;98558.66;4951883;28;20031;-50
2022/10/06 07:30:25;;;;;;;3.03;1.70;;;15.60;99.90;;;15.27;100.00;98556.00;4952257;28;20508;-51
2022/10/06 07:32:52;;;;;;;9.07;1.90;;;15.60;99.90;;;15.24;100.00;98553.47;4948369;28;20529;-52
2022/10/06 07:35:19;;;;;;;3.10;1.88;;;15.70;99.90;;;15.30;100.00;98558.56;4953471;28;20035;-51
2022/10/06 07:37:46;;;;;;;3.42;1.90;;;15.60;99.90;;;15.23;100.00;98557.91;4947978;28;20038;-52
2022/10/06 07:40:13;;;;;;;10.15;1.95;;;15.60;99.90;;;15.30;100.00;98563.00;4936049;28;20062;-49
2022/10/06 07:42:52;;;;;;;4.38;1.70;;;15.70;99.90;;;15.22;100.00;98540.25;4951339;28;20050;-49
2022/10/06 07:45:38;;;;;;;6.20;2.08;;;15.70;99.90;;;15.39;100.00;98570.63;4946327;28;20047;-52
2022/10/06 07:48:17;;;;;;;5.75;1.70;;;15.70;99.90;;;15.34;100.00;98565.47;4954341;28;20134;-50
2022/10/06 07:50:48;;;;;;;3.17;1.80;;;15.80;99.90;;;15.40;100.00;98567.06;4950936;28;20046;-51
2022/10/06 07:53:16;;;;;;;3.35;2.22;;;15.80;99.90;;;15.42;100.00;98568.72;4952255;28;20033;-52
2022/10/06 07:55:45;;;;;;;3.67;1.60;;;15.80;99.90;;;15.44;100.00;98576.66;4947242;28;20047;-52
2022/10/06 07:58:22;;;;;;;3.10;1.80;;;15.90;99.90;;;15.54;100.00;98578.03;4950193;28;20480;-50
2022/10/06 08:00:51;;;;;;;4.82;1.70;;;15.90;99.90;;;15.62;100.00;98577.72;4949094;28;20047;-50
2022/10/06 08:03:18;;;;;;;4.05;1.75;;;16.00;99.90;;;15.63;100.00;98585.66;4946858;28;20042;-49
2022/10/06 08:05:46;;;;;;;5.63;1.70;;;16.00;99.90;;;15.66;100.00;98579.34;4950056;28;20031;-52
2022/10/06 08:08:13;;;;;;;4.97;1.80;;;16.00;99.90;;;15.60;100.00;98580.44;4951360;28;20035;-49
2022/10/06 08:10:41;;;;;;;3.28;1.80;;;15.90;99.90;;;15.59;100.00;98584.00;4950624;28;20091;-52
2022/10/06 08:13:07;;;;;;;4.30;1.67;;;15.90;99.90;;;15.54;100.00;98591.34;4949290;28;20089;-51
2022/10/06 08:15:34;;;;;;;5.55;1.85;;;15.90;99.90;;;15.54;100.00;98590.44;4951794;28;20499;-51
2022/10/06 08:18:01;;;;;;;8.02;1.75;;;15.90;99.90;;;15.53;100.00;98596.69;4947072;28;20717;-51
2022/10/06 08:20:27;;;;;;;11.52;1.90;;;15.90;99.90;;;15.44;100.00;98587.28;4951855;28;20733;-50
2022/10/06 08:22:53;;;;;;;3.53;1.70;;;15.90;99.90;;;15.51;100.00;98599.41;4949185;28;20185;-52
2022/10/06 08:25:19;;;;;;;4.45;2.00;;;15.80;99.90;;;15.47;100.00;98592.50;4954152;28;20500;-51
2022/10/06 08:27:45;;;;;;;5.07;1.67;;;15.90;99.90;;;15.53;100.00;98602.03;4954866;28;20116;-52
2022/10/06 08:30:12;;;;;;;4.50;1.50;;;15.90;99.90;;;15.57;100.00;98606.28;4949048;28;20448;-50
2022/10/06 08:32:41;;;;;;;11.35;1.80;;;16.00;99.90;;;15.66;100.00;98619.22;4953266;28;20035;-48
2022/10/06 08:35:08;;;;;;;3.40;1.50;;;16.00;99.90;;;15.68;100.00;98622.69;4952608;28;20117;-48
2022/10/06 08:37:34;;;;;;;8.55;1.83;;;16.10;99.90;;;15.70;100.00;98623.50;4950497;28;20141;-47
2022/10/06 08:40:00;;;;;;;6.10;1.90;;;16.10;99.90;;;15.68;100.00;98625.34;4956169;28;20031;-51
2022/10/06 08:42:41;;;;;;;5.75;1.70;;;16.10;99.90;;;15.62;100.00;98633.56;4953144;28;20143;-49
2022/10/06 08:45:14;;;;;;;8.00;1.50;;;16.10;99.90;;;15.67;100.00;98623.63;4951308;28;21235;-51
2022/10/06 08:48:07;;;;;;;2.25;1.20;;;16.10;99.90;;;15.80;100.00;98630.22;4954514;28;20523;-48
2022/10/06 08:50:49;;;;;;;3.85;1.40;;;16.20;99.90;;;15.92;100.00;98633.38;4954485;28;20062;-50
2022/10/06 08:53:45;;;;;;;3.55;1.40;;;16.30;99.90;;;15.95;100.00;98639.44;4950851;28;20033;-52
2022/10/06 08:56:22;;;;;;;2.42;1.27;;;16.30;99.90;;;15.97;100.00;98634.91;4942280;28;20810;-48
2022/10/06 08:58:57;;;;;;;4.47;1.70;;;16.30;99.90;;;16.02;100.00;98646.25;4939168;28;20089;-49
2022/10/06 09:01:32;;;;;;;6.40;1.42;;;16.40;99.90;;;16.11;100.00;98641.47;4953259;28;20118;-50
2022/10/06 09:04:00;;;;;;;3.60;1.40;;;16.40;99.90;;;16.13;100.00;98651.16;4953181;28;20366;-52
2022/10/06 09:07:09;;;;;;;5.90;1.67;;;16.50;99.90;;;16.20;100.00;98652.66;4956518;28;20062;-51
2022/10/06 09:10:06;;;;;;;3.60;1.23;;;16.50;99.90;;;16.22;100.00;98650.78;4954177;28;20035;-51
2022/10/06 09:12:45;;;;;;;4.22;1.40;;;16.60;99.90;;;16.26;100.00;98651.53;4981991;22;20648;-44
2022/10/06 09:15:14;;;;;;;2.15;1.10;;;16.60;99.90;;;16.30;100.00;98650.47;4987726;28;20040;-43
2022/10/06 09:17:49;;;;;;;2.70;1.08;;;16.60;99.90;;;16.37;100.00;98651.94;4992350;28;20038;-43
2022/10/06 09:20:31;;;;;;;5.32;1.10;;;16.70;99.90;;;16.40;100.00;98659.81;4975586;28;20471;-44
2022/10/06 09:22:59;;;;;;;4.80;1.20;;;16.80;99.90;;;16.44;100.00;98655.25;4975846;28;20037;-43
2022/10/06 09:25:27;;;;;;;3.95;1.50;;;16.90;99.90;;;16.55;100.00;98657.47;4968189;28;20038;-44
2022/10/06 09:27:56;;;;;;;3.80;1.33;;;16.90;99.90;;;16.65;99.02;98649.94;4970640;28;20064;-43
2022/10/06 09:30:23;;;;;;;1.25;1.00;;;17.10;99.90;;;16.85;97.14;98650.03;4990271;28;20069;-44
2022/10/06 09:33:01;;;;;;;1.77;1.00;;;17.20;99.90;;;16.85;91.57;98650.03;4985411;28;20030;-47
2022/10/06 09:35:30;;;;;;;3.53;1.50;;;17.40;99.90;;;16.95;92.78;98645.16;4969978;28;20034;-47
2022/10/06 09:38:04;;;;;;;2.17;1.38;;;17.50;99.90;;;17.14;93.58;98661.22;4973167;28;20080;-43
2022/10/06 09:40:52;;;;;;;4.55;1.35;;;17.60;99.90;;;17.34;92.07;98663.00;4972657;28;20515;-48
2022/10/06 09:43:26;;;;;;;3.65;1.30;;;17.70;99.90;;;17.51;92.05;98670.25;4990773;28;20132;-46
2022/10/06 09:45:57;;;;;;;3.75;1.15;;;17.90;99.90;;;17.56;90.07;98670.91;4987913;28;20030;-47
2022/10/06 09:48:25;;;;;;;3.85;1.20;;;17.90;99.90;;;17.65;89.50;98677.63;4970449;28;20035;-47
2022/10/06 09:51:16;;;;;;;4.18;1.10;;;18.00;99.90;;;17.75;89.57;98679.81;4988245;28;20030;-44
2022/10/06 09:53:44;;;;;;;3.00;1.25;;;18.10;99.90;;;17.89;88.66;98686.34;4990685;28;20034;-47
2022/10/06 09:56:17;;;;;;;4.68;1.35;;;18.20;99.90;;;17.97;87.70;98683.34;4973551;28;20038;-45
2022/10/06 09:58:55;;;;;;;3.45;1.00;;;18.30;99.90;;;17.96;84.66;98682.44;4989115;28;20445;-46
2022/10/06 10:01:27;;;;;;;2.47;1.30;;;18.40;99.90;;;18.04;89.26;98682.97;4972398;28;20034;-47
2022/10/06 10:03:59;;;;;;;2.45;1.20;;;18.40;99.90;;;18.06;85.48;98685.56;4983952;28;20044;-46
2022/10/06 10:06:28;;;;;;;2.80;1.25;;;18.40;99.90;;;18.20;88.01;98685.78;4984524;28;20033;-46
2022/10/06 10:09:22;;;;;;;3.22;1.10;;;18.50;99.90;;;18.24;86.09;98697.19;4971604;28;20025;-45
2022/10/06 10:12:23;;;;;;;5.05;1.15;;;18.60;99.90;;;18.19;83.53;98680.50;4989605;28;20028;-46
2022/10/06 10:14:50;;;;;;;1.90;1.00;;;18.60;99.90;;;18.00;85.24;98681.38;4989187;28;20040;-44
2022/10/06 10:17:38;;;;;;;3.70;1.17;;;18.30;99.90;;;17.75;85.08;98693.16;4990199;28;20026;-47
2022/10/06 10:20:23;;;;;;;9.98;1.55;;;18.20;99.90;;;17.61;85.35;98681.38;4969313;28;20538;-45
2022/10/06 10:22:50;;;;;;;5.32;1.27;;;18.00;99.90;;;17.49;88.50;98675.66;4988557;28;20045;-42
2022/10/06 10:25:40;;;;;;;6.03;1.10;;;17.90;99.90;;;17.47;91.11;98677.53;4969072;28;20073;-45
2022/10/06 10:28:52;;;;;;;3.00;1.10;;;17.70;99.90;;;17.63;88.71;98683.03;4989115;28;20137;-46
2022/10/06 10:31:47;;;;;;;4.50;1.30;;;17.90;99.90;;;17.61;82.44;98678.72;4992051;28;20034;-46
2022/10/06 10:34:43;;;;;;;7.50;1.13;;;18.00;99.90;;;17.54;85.57;98673.63;4966905;28;20752;-44
2022/10/06 10:37:23;;;;;;;5.05;1.42;;;17.90;99.90;;;17.41;85.46;98672.47;4988740;28;20038;-44
2022/10/06 10:39:56;;;;;;;6.97;1.15;;;17.80;99.90;;;17.36;82.40;98671.81;4987480;28;20120;-46
2022/10/06 10:42:33;;;;;;;5.78;1.33;;;17.80;99.90;;;17.27;87.15;98675.75;4968898;28;20399;-47